^^
Saratoga-Weather Station Historical Data
Daily Summary for September 2, 2020 Units:  English    Metric   Both
Daily Weekly Monthly Yearly Custom
  High: Low: Average:
Temperature: 67.6 °F 63 °F 64.4 °F
Dew Point: 62.6 °F 59.7 °F 61.5 °F
Humidity: 92% 83% 90%
Wind Speed: 6.9mph 0mph 1.4mph
Wind Gust: 8mph - -
Wind- - WNW
Pressure: 29.8 in 29.8 in -
Precipitation: 0 in    
Historical Graphs
 
 
Tabular Data for September 2, 2020
Time Temperature Dew Point Pressure Wind Wind Speed Wind Gust Humidity Rainfall Rate (Hourly) solar
00:02 67.6 °F 62.2 °F 29.8 in WNW 2.9 mph 6 mph 83% 0 in 0 W/m2
00:07 67.5 °F 62.4 °F 29.8 in West 0.9 mph 2 mph 84% 0 in 0 W/m2
00:12 67.3 °F 62.2 °F 29.8 in West 4 mph 7 mph 84% 0 in 0 W/m2
00:17 66.9 °F 62.2 °F 29.8 in WNW 4 mph 8 mph 85% 0 in 0 W/m2
00:22 66.7 °F 62.4 °F 29.8 in West 4 mph 4 mph 86% 0 in 0 W/m2
00:27 66.6 °F 62.6 °F 29.8 in West 4 mph 8 mph 87% 0 in 0 W/m2
00:32 66.4 °F 62.4 °F 29.8 in NW 0.9 mph 2 mph 87% 0 in 0 W/m2
00:37 66 °F 62.6 °F 29.8 in West 2 mph 5 mph 89% 0 in 0 W/m2
00:42 65.8 °F 62.4 °F 29.8 in WSW 0.9 mph 2 mph 89% 0 in 0 W/m2
00:47 65.7 °F 62.6 °F 29.8 in WSW 0.9 mph 1 mph 90% 0 in 0 W/m2
00:52 65.5 °F 62.4 °F 29.8 in Calm     90% 0 in 0 W/m2
00:57 65.3 °F 62.2 °F 29.8 in Calm     90% 0 in 0 W/m2
01:02 65.1 °F 62.1 °F 29.8 in Calm   1 mph 90% 0 in 0 W/m2
01:07 64.9 °F 62.2 °F 29.8 in Calm   1 mph 91% 0 in 0 W/m2
01:12 64.9 °F 62.2 °F 29.8 in Calm     91% 0 in 0 W/m2
01:18 64.9 °F 62.2 °F 29.8 in Calm     91% 0 in 0 W/m2
01:23 64.8 °F 62.1 °F 29.8 in Calm   2 mph 91% 0 in 0 W/m2
01:28 64.8 °F 62.1 °F 29.8 in West 2 mph 6 mph 91% 0 in 0 W/m2
01:33 64.8 °F 62.1 °F 29.8 in West 0.9 mph 1 mph 91% 0 in 0 W/m2
01:38 64.6 °F 62.2 °F 29.8 in Calm   3 mph 92% 0 in 0 W/m2
01:43 64.6 °F 62.2 °F 29.8 in Calm   1 mph 92% 0 in 0 W/m2
01:48 64.4 °F 62.1 °F 29.8 in Calm   1 mph 92% 0 in 0 W/m2
01:53 64.4 °F 62.1 °F 29.8 in Calm     92% 0 in 0 W/m2
01:58 64.4 °F 62.1 °F 29.8 in Calm   1 mph 92% 0 in 0 W/m2
02:03 64.4 °F 62.1 °F 29.8 in NW 0.9 mph 2 mph 92% 0 in 0 W/m2
02:08 64.4 °F 62.1 °F 29.8 in NW 0.9 mph 1 mph 92% 0 in 0 W/m2
02:13 64.6 °F 62.2 °F 29.8 in North 2 mph 2 mph 92% 0 in 0 W/m2
02:23 64.8 °F 62.4 °F 29.8 in Calm   1 mph 92% 0 in 0 W/m2
02:28 64.6 °F 62.2 °F 29.8 in North 0.9 mph 1 mph 92% 0 in 0 W/m2
02:34 64.6 °F 62.2 °F 29.8 in Calm     92% 0 in 0 W/m2
02:39 64.6 °F 62.2 °F 29.8 in Calm   1 mph 92% 0 in 0 W/m2
02:44 64.6 °F 62.2 °F 29.8 in North 0.9 mph 1 mph 92% 0 in 0 W/m2
02:49 64.6 °F 62.2 °F 29.8 in Calm   3 mph 92% 0 in 0 W/m2
02:54 64.6 °F 62.2 °F 29.8 in NW 0.9 mph 2 mph 92% 0 in 0 W/m2
02:59 64.6 °F 62.2 °F 29.8 in NW 0.9 mph 2 mph 92% 0 in 0 W/m2
03:04 64.6 °F 61.9 °F 29.8 in Calm   2 mph 91% 0 in 0 W/m2
03:09 64.6 °F 61.9 °F 29.8 in NNW 0.9 mph 1 mph 91% 0 in 0 W/m2
03:14 64.6 °F 61.9 °F 29.8 in NNW 0.9 mph 1 mph 91% 0 in 0 W/m2
03:19 64.6 °F 61.9 °F 29.8 in Calm   1 mph 91% 0 in 0 W/m2
03:24 64.6 °F 61.9 °F 29.8 in Calm   2 mph 91% 0 in 0 W/m2
03:29 64.6 °F 61.9 °F 29.8 in NNW 2.9 mph 4 mph 91% 0 in 0 W/m2
03:34 64.4 °F 61.7 °F 29.8 in Calm     91% 0 in 0 W/m2
03:39 64.4 °F 61.7 °F 29.8 in WNW 4 mph 4 mph 91% 0 in 0 W/m2
03:44 64.2 °F 61.5 °F 29.8 in West 2 mph 4 mph 91% 0 in 0 W/m2
03:49 64.2 °F 61.5 °F 29.8 in NW 2.9 mph 3 mph 91% 0 in 0 W/m2
03:54 64.4 °F 61.7 °F 29.8 in NW 0.9 mph 2 mph 91% 0 in 0 W/m2
03:59 64.6 °F 61.9 °F 29.8 in NW 2 mph 4 mph 91% 0 in 0 W/m2
04:04 64.6 °F 61.5 °F 29.8 in East 0.9 mph 2 mph 90% 0 in 0 W/m2
04:09 64.4 °F 61.3 °F 29.8 in ENE 0.9 mph 2 mph 90% 0 in 0 W/m2
04:14 64.2 °F 61.2 °F 29.8 in Calm   1 mph 90% 0 in 0 W/m2
04:25 64 °F 61 °F 29.8 in NNW 2.9 mph 7 mph 90% 0 in 0 W/m2
04:30 64 °F 61 °F 29.8 in Calm   2 mph 90% 0 in 0 W/m2
04:35 63.9 °F 61.2 °F 29.8 in NNW 0.9 mph 6 mph 91% 0 in 0 W/m2
04:40 63.9 °F 61.2 °F 29.8 in Calm   2 mph 91% 0 in 0 W/m2
04:45 63.9 °F 61.2 °F 29.8 in WSW 0.9 mph 5 mph 91% 0 in 0 W/m2
04:50 63.9 °F 60.8 °F 29.8 in Calm   3 mph 90% 0 in 0 W/m2
05:00 63.9 °F 60.8 °F 29.8 in Calm   2 mph 90% 0 in 0 W/m2
05:05 63.9 °F 60.8 °F 29.8 in Calm   2 mph 90% 0 in 0 W/m2
05:10 63.9 °F 60.8 °F 29.8 in Calm   2 mph 90% 0 in 0 W/m2
05:15 63.7 °F 60.6 °F 29.8 in NW 2 mph 4 mph 90% 0 in 0 W/m2
05:20 63.7 °F 61 °F 29.8 in North 0.9 mph 1 mph 91% 0 in 0 W/m2
05:25 63.5 °F 60.8 °F 29.8 in WSW 2.9 mph 3 mph 91% 0 in 0 W/m2
05:30 63.3 °F 60.6 °F 29.8 in WNW 2 mph 2 mph 91% 0 in 0 W/m2
05:35 63.3 °F 60.3 °F 29.8 in WNW 6.9 mph 8 mph 90% 0 in 0 W/m2
05:40 63.3 °F 60.3 °F 29.8 in WNW 4 mph 5 mph 90% 0 in 5 W/m2
05:45 63.1 °F 60.1 °F 29.8 in SW 2 mph 8 mph 90% 0 in 5 W/m2
05:50 63.1 °F 60.1 °F 29.8 in NW 0.9 mph 2 mph 90% 0 in 7 W/m2
05:55 63 °F 59.9 °F 29.8 in WNW 2.9 mph 3 mph 90% 0 in 12 W/m2
06:00 63 °F 60.3 °F 29.8 in West 2.9 mph 7 mph 91% 0 in 14 W/m2
06:10 63 °F 60.3 °F 29.8 in NW 2.9 mph 7 mph 91% 0 in 30 W/m2
06:15 63 °F 60.3 °F 29.8 in WNW 0.9 mph 5 mph 91% 0 in 30 W/m2
06:20 63 °F 59.9 °F 29.8 in West 4 mph 4 mph 90% 0 in 30 W/m2
06:25 63 °F 59.9 °F 29.8 in WNW 2 mph 4 mph 90% 0 in 42 W/m2
06:30 63 °F 59.9 °F 29.8 in West 2 mph 4 mph 90% 0 in 49 W/m2
06:35 63 °F 59.7 °F 29.8 in West 2 mph 7 mph 89% 0 in 62 W/m2
06:40 63 °F 59.7 °F 29.8 in NW 2 mph 2 mph 89% 0 in 70 W/m2
06:45 63.1 °F 59.9 °F 29.8 in West 2.9 mph 4 mph 89% 0 in 77 W/m2
06:50 63.3 °F 59.7 °F 29.8 in NW 4 mph 5 mph 88% 0 in 58 W/m2
06:55 63.3 °F 59.7 °F 29.8 in SSE 6 mph 7 mph 88% 0 in 49 W/m2
07:00 63.3 °F 59.7 °F 29.8 in WSW 0.9 mph 3 mph 88% 0 in 51 W/m2
Juneau County Weather
Compliments of Weather Underground - 4 mb